sensor_id;sensor_type;location;lat;lon;timestamp;temperature;humidity
14475;DHT22;7323;50.848;4.334;2022-09-16T00:01:26;16.30;4.90
14475;DHT22;7323;50.848;4.334;2022-09-16T00:04:06;16.40;12.50
14475;DHT22;7323;50.848;4.334;2022-09-16T00:06:59;16.30;16.90
14475;DHT22;7323;50.848;4.334;2022-09-16T00:09:56;16.30;17.30
14475;DHT22;7323;50.848;4.334;2022-09-16T00:12:32;16.30;19.70
14475;DHT22;7323;50.848;4.334;2022-09-16T00:15:20;16.20;21.30
14475;DHT22;7323;50.848;4.334;2022-09-16T00:18:17;16.10;23.80
14475;DHT22;7323;50.848;4.334;2022-09-16T00:20:52;16.10;25.00
14475;DHT22;7323;50.848;4.334;2022-09-16T00:23:28;16.00;25.20
14475;DHT22;7323;50.848;4.334;2022-09-16T00:26:01;16.00;22.60
14475;DHT22;7323;50.848;4.334;2022-09-16T00:28:49;16.00;23.90
14475;DHT22;7323;50.848;4.334;2022-09-16T00:31:33;15.90;25.90
14475;DHT22;7323;50.848;4.334;2022-09-16T00:34:21;15.70;28.60
14475;DHT22;7323;50.848;4.334;2022-09-16T00:37:06;15.60;30.00
14475;DHT22;7323;50.848;4.334;2022-09-16T00:42:59;15.50;33.40
14475;DHT22;7323;50.848;4.334;2022-09-16T00:48:34;15.50;29.20
14475;DHT22;7323;50.848;4.334;2022-09-16T00:51:08;15.50;29.40
14475;DHT22;7323;50.848;4.334;2022-09-16T00:54:04;15.50;30.20
14475;DHT22;7323;50.848;4.334;2022-09-16T01:00:15;15.40;31.10
14475;DHT22;7323;50.848;4.334;2022-09-16T01:02:50;15.40;30.00
14475;DHT22;7323;50.848;4.334;2022-09-16T01:08:41;15.40;28.20
14475;DHT22;7323;50.848;4.334;2022-09-16T01:14:32;15.40;26.60
14475;DHT22;7323;50.848;4.334;2022-09-16T01:40:15;15.20;26.50
14475;DHT22;7323;50.848;4.334;2022-09-16T01:43:17;15.20;26.40
14475;DHT22;7323;50.848;4.334;2022-09-16T01:45:59;15.20;29.30
14475;DHT22;7323;50.848;4.334;2022-09-16T01:55:40;15.40;35.80
14475;DHT22;7323;50.848;4.334;2022-09-16T02:01:06;15.40;30.40
14475;DHT22;7323;50.848;4.334;2022-09-16T02:07:31;15.20;36.00
14475;DHT22;7323;50.848;4.334;2022-09-16T02:10:16;15.20;30.60
14475;DHT22;7323;50.848;4.334;2022-09-16T02:16:34;15.10;22.00
14475;DHT22;7323;50.848;4.334;2022-09-16T02:22:22;15.10;25.20
14475;DHT22;7323;50.848;4.334;2022-09-16T02:28:49;15.10;19.10
14475;DHT22;7323;50.848;4.334;2022-09-16T02:31:21;15.10;17.10
14475;DHT22;7323;50.848;4.334;2022-09-16T02:40:51;15.10;12.90
14475;DHT22;7323;50.848;4.334;2022-09-16T02:43:21;15.30;11.50
14475;DHT22;7323;50.848;4.334;2022-09-16T02:49:24;15.40;1.00
14475;DHT22;7323;50.848;4.334;2022-09-16T02:58:33;15.30;1.40
14475;DHT22;7323;50.848;4.334;2022-09-16T03:04:53;15.30;7.40
14475;DHT22;7323;50.848;4.334;2022-09-16T03:07:41;15.10;11.90
14475;DHT22;7323;50.848;4.334;2022-09-16T03:10:36;15.20;13.70
14475;DHT22;7323;50.848;4.334;2022-09-16T03:27:02;15.10;16.40
14475;DHT22;7323;50.848;4.334;2022-09-16T03:33:38;15.00;19.50
14475;DHT22;7323;50.848;4.334;2022-09-16T03:36:28;15.00;17.50
14475;DHT22;7323;50.848;4.334;2022-09-16T03:39:21;15.00;19.50
14475;DHT22;7323;50.848;4.334;2022-09-16T03:42:09;15.00;22.20
14475;DHT22;7323;50.848;4.334;2022-09-16T03:44:54;14.80;23.90
14475;DHT22;7323;50.848;4.334;2022-09-16T03:47:55;14.80;26.90
14475;DHT22;7323;50.848;4.334;2022-09-16T03:50:26;14.80;24.80
14475;DHT22;7323;50.848;4.334;2022-09-16T03:53:14;14.70;23.50
14475;DHT22;7323;50.848;4.334;2022-09-16T03:56:04;14.80;22.40
14475;DHT22;7323;50.848;4.334;2022-09-16T04:02:02;14.90;22.00
14475;DHT22;7323;50.848;4.334;2022-09-16T04:17:58;14.70;21.60
14475;DHT22;7323;50.848;4.334;2022-09-16T04:23:51;14.50;24.60
14475;DHT22;7323;50.848;4.334;2022-09-16T04:26:39;14.50;22.30
14475;DHT22;7323;50.848;4.334;2022-09-16T04:29:27;14.50;24.80
14475;DHT22;7323;50.848;4.334;2022-09-16T04:32:07;14.50;26.00
14475;DHT22;7323;50.848;4.334;2022-09-16T04:35:18;14.40;27.00
14475;DHT22;7323;50.848;4.334;2022-09-16T04:37:53;14.40;26.40
14475;DHT22;7323;50.848;4.334;2022-09-16T04:40:21;14.60;24.20
14475;DHT22;7323;50.848;4.334;2022-09-16T04:52:37;14.40;26.00
14475;DHT22;7323;50.848;4.334;2022-09-16T04:55:25;14.40;25.40
14475;DHT22;7323;50.848;4.334;2022-09-16T05:01:23;14.30;29.20
14475;DHT22;7323;50.848;4.334;2022-09-16T05:04:09;14.40;29.10
14475;DHT22;7323;50.848;4.334;2022-09-16T05:10:09;14.40;28.70
14475;DHT22;7323;50.848;4.334;2022-09-16T05:13:03;14.40;29.00
14475;DHT22;7323;50.848;4.334;2022-09-16T05:16:04;14.50;29.90
14475;DHT22;7323;50.848;4.334;2022-09-16T05:21:54;14.30;28.40
14475;DHT22;7323;50.848;4.334;2022-09-16T05:24:53;14.20;30.00
14475;DHT22;7323;50.848;4.334;2022-09-16T05:27:53;14.20;31.80
14475;DHT22;7323;50.848;4.334;2022-09-16T05:44:02;14.20;38.40
14475;DHT22;7323;50.848;4.334;2022-09-16T05:46:46;14.30;37.70
14475;DHT22;7323;50.848;4.334;2022-09-16T05:49:20;14.30;38.00
14475;DHT22;7323;50.848;4.334;2022-09-16T05:51:46;14.30;40.90
14475;DHT22;7323;50.848;4.334;2022-09-16T05:54:16;14.30;42.00
14475;DHT22;7323;50.848;4.334;2022-09-16T05:56:46;14.30;42.20
14475;DHT22;7323;50.848;4.334;2022-09-16T05:59:42;14.40;42.70
14475;DHT22;7323;50.848;4.334;2022-09-16T06:09:28;14.50;45.80
14475;DHT22;7323;50.848;4.334;2022-09-16T06:12:04;14.50;46.50
14475;DHT22;7323;50.848;4.334;2022-09-16T06:15:01;14.50;48.50
14475;DHT22;7323;50.848;4.334;2022-09-16T06:25:13;14.30;61.90
14475;DHT22;7323;50.848;4.334;2022-09-16T06:27:38;14.40;61.50
14475;DHT22;7323;50.848;4.334;2022-09-16T06:30:39;14.40;64.80
14475;DHT22;7323;50.848;4.334;2022-09-16T06:37:23;14.30;68.50
14475;DHT22;7323;50.848;4.334;2022-09-16T06:40:16;14.40;72.60
14475;DHT22;7323;50.848;4.334;2022-09-16T06:46:33;14.60;62.40
14475;DHT22;7323;50.848;4.334;2022-09-16T06:52:56;14.30;68.00
14475;DHT22;7323;50.848;4.334;2022-09-16T06:55:33;14.30;72.80
14475;DHT22;7323;50.848;4.334;2022-09-16T06:58:20;14.30;78.30
14475;DHT22;7323;50.848;4.334;2022-09-16T07:01:12;14.30;79.60
14475;DHT22;7323;50.848;4.334;2022-09-16T07:04:10;14.30;79.80
14475;DHT22;7323;50.848;4.334;2022-09-16T07:07:03;14.30;82.30
14475;DHT22;7323;50.848;4.334;2022-09-16T07:13:06;14.30;80.50
14475;DHT22;7323;50.848;4.334;2022-09-16T07:15:58;14.30;82.10
14475;DHT22;7323;50.848;4.334;2022-09-16T07:22:19;14.30;83.30
14475;DHT22;7323;50.848;4.334;2022-09-16T07:25:38;14.00;87.60
14475;DHT22;7323;50.848;4.334;2022-09-16T07:31:50;13.70;90.70
14475;DHT22;7323;50.848;4.334;2022-09-16T07:37:19;13.70;91.10
14475;DHT22;7323;50.848;4.334;2022-09-16T07:39:53;13.70;90.00
14475;DHT22;7323;50.848;4.334;2022-09-16T07:42:25;13.80;89.80
14475;DHT22;7323;50.848;4.334;2022-09-16T07:45:36;13.90;87.20
14475;DHT22;7323;50.848;4.334;2022-09-16T07:48:40;14.10;85.20
14475;DHT22;7323;50.848;4.334;2022-09-16T07:51:24;13.90;83.60
14475;DHT22;7323;50.848;4.334;2022-09-16T08:17:13;14.40;71.30
14475;DHT22;7323;50.848;4.334;2022-09-16T08:29:48;14.50;67.60
14475;DHT22;7323;50.848;4.334;2022-09-16T08:32:34;14.60;69.40
14475;DHT22;7323;50.848;4.334;2022-09-16T08:35:00;14.60;70.60
14475;DHT22;7323;50.848;4.334;2022-09-16T08:37:33;14.60;69.30
14475;DHT22;7323;50.848;4.334;2022-09-16T08:40:13;14.50;68.30
14475;DHT22;7323;50.848;4.334;2022-09-16T08:46:19;14.50;81.10
14475;DHT22;7323;50.848;4.334;2022-09-16T09:05:00;14.00;93.70
14475;DHT22;7323;50.848;4.334;2022-09-16T09:48:24;14.60;67.40
14475;DHT22;7323;50.848;4.334;2022-09-16T09:51:44;14.50;56.80
14475;DHT22;7323;50.848;4.334;2022-09-16T09:55:12;14.80;54.40
14475;DHT22;7323;50.848;4.334;2022-09-16T09:58:00;15.10;46.50
14475;DHT22;7323;50.848;4.334;2022-09-16T10:00:40;15.30;39.30
14475;DHT22;7323;50.848;4.334;2022-09-16T10:03:38;15.40;32.90
14475;DHT22;7323;50.848;4.334;2022-09-16T10:06:17;15.50;27.30
14475;DHT22;7323;50.848;4.334;2022-09-16T10:11:56;15.60;36.10
14475;DHT22;7323;50.848;4.334;2022-09-16T10:14:44;15.80;34.60
14475;DHT22;7323;50.848;4.334;2022-09-16T10:20:36;15.70;21.90
14475;DHT22;7323;50.848;4.334;2022-09-16T10:29:50;15.70;17.70
14475;DHT22;7323;50.848;4.334;2022-09-16T10:36:00;14.90;23.90
14475;DHT22;7323;50.848;4.334;2022-09-16T10:41:49;14.00;67.50
14475;DHT22;7323;50.848;4.334;2022-09-16T10:48:05;14.30;63.00
14475;DHT22;7323;50.848;4.334;2022-09-16T10:54:04;14.60;56.30
14475;DHT22;7323;50.848;4.334;2022-09-16T10:56:55;14.80;58.50
14475;DHT22;7323;50.848;4.334;2022-09-16T11:03:39;15.10;51.50
14475;DHT22;7323;50.848;4.334;2022-09-16T11:07:01;15.20;49.30
14475;DHT22;7323;50.848;4.334;2022-09-16T11:21:09;15.20;32.30
14475;DHT22;7323;50.848;4.334;2022-09-16T11:40:30;14.40;37.10
14475;DHT22;7323;50.848;4.334;2022-09-16T11:50:01;14.40;46.00
14475;DHT22;7323;50.848;4.334;2022-09-16T11:56:15;14.10;61.10
14475;DHT22;7323;50.848;4.334;2022-09-16T11:59:40;13.80;67.30
14475;DHT22;7323;50.848;4.334;2022-09-16T12:11:30;13.40;81.90
14475;DHT22;7323;50.848;4.334;2022-09-16T12:17:19;13.50;74.80
14475;DHT22;7323;50.848;4.334;2022-09-16T12:20:49;13.40;82.40
14475;DHT22;7323;50.848;4.334;2022-09-16T12:23:32;13.30;85.10
14475;DHT22;7323;50.848;4.334;2022-09-16T12:39:18;13.60;73.60
14475;DHT22;7323;50.848;4.334;2022-09-16T13:07:42;14.80;60.80
14475;DHT22;7323;50.848;4.334;2022-09-16T13:10:41;14.80;67.20
14475;DHT22;7323;50.848;4.334;2022-09-16T13:13:19;14.80;62.80
14475;DHT22;7323;50.848;4.334;2022-09-16T13:16:02;14.90;63.40
14475;DHT22;7323;50.848;4.334;2022-09-16T13:22:30;15.10;66.20
14475;DHT22;7323;50.848;4.334;2022-09-16T13:25:41;15.10;60.00
14475;DHT22;7323;50.848;4.334;2022-09-16T13:34:47;15.40;55.00
14475;DHT22;7323;50.848;4.334;2022-09-16T13:40:59;14.20;23.20
14475;DHT22;7323;50.848;4.334;2022-09-16T13:47:15;13.40;65.80
14475;DHT22;7323;50.848;4.334;2022-09-16T14:12:55;14.30;43.40
14475;DHT22;7323;50.848;4.334;2022-09-16T14:15:59;14.60;33.20
14475;DHT22;7323;50.848;4.334;2022-09-16T14:19:03;14.80;21.00
14475;DHT22;7323;50.848;4.334;2022-09-16T14:21:34;14.60;19.50
14475;DHT22;7323;50.848;4.334;2022-09-16T14:27:32;14.80;24.70
14475;DHT22;7323;50.848;4.334;2022-09-16T14:30:20;15.10;21.70
14475;DHT22;7323;50.848;4.334;2022-09-16T14:32:56;15.00;28.90
14475;DHT22;7323;50.848;4.334;2022-09-16T14:35:53;14.90;29.20
14475;DHT22;7323;50.848;4.334;2022-09-16T14:45:14;14.10;32.10
14475;DHT22;7323;50.848;4.334;2022-09-16T14:47:45;14.20;22.40
14475;DHT22;7323;50.848;4.334;2022-09-16T14:50:47;14.00;15.90
14475;DHT22;7323;50.848;4.334;2022-09-16T14:53:33;14.20;19.10
14475;DHT22;7323;50.848;4.334;2022-09-16T14:56:17;14.20;10.90
14475;DHT22;7323;50.848;4.334;2022-09-16T15:05:41;14.80;4.80
14475;DHT22;7323;50.848;4.334;2022-09-16T15:08:33;14.70;1.00
14475;DHT22;7323;50.848;4.334;2022-09-16T15:11:35;14.50;1.00
14475;DHT22;7323;50.848;4.334;2022-09-16T15:14:09;14.60;1.00
14475;DHT22;7323;50.848;4.334;2022-09-16T15:16:45;14.70;1.00
14475;DHT22;7323;50.848;4.334;2022-09-16T15:22:41;15.00;1.00
14475;DHT22;7323;50.848;4.334;2022-09-16T15:31:39;15.30;1.00
14475;DHT22;7323;50.848;4.334;2022-09-16T15:43:51;14.90;1.00
14475;DHT22;7323;50.848;4.334;2022-09-16T15:46:29;14.70;4.90
14475;DHT22;7323;50.848;4.334;2022-09-16T15:49:00;14.60;9.60
14475;DHT22;7323;50.848;4.334;2022-09-16T15:51:44;14.50;13.30
14475;DHT22;7323;50.848;4.334;2022-09-16T15:57:44;14.70;10.50
14475;DHT22;7323;50.848;4.334;2022-09-16T16:00:23;15.10;6.50
14475;DHT22;7323;50.848;4.334;2022-09-16T16:03:15;15.80;1.00
14475;DHT22;7323;50.848;4.334;2022-09-16T16:12:28;15.20;2.10
14475;DHT22;7323;50.848;4.334;2022-09-16T16:18:17;14.70;11.30
14475;DHT22;7323;50.848;4.334;2022-09-16T16:24:11;14.60;12.70
14475;DHT22;7323;50.848;4.334;2022-09-16T16:26:58;14.50;17.30
14475;DHT22;7323;50.848;4.334;2022-09-16T16:32:52;14.20;23.20
14475;DHT22;7323;50.848;4.334;2022-09-16T16:35:33;14.00;31.80
14475;DHT22;7323;50.848;4.334;2022-09-16T16:38:24;14.00;38.60
14475;DHT22;7323;50.848;4.334;2022-09-16T16:40:59;14.00;42.60
14475;DHT22;7323;50.848;4.334;2022-09-16T16:43:39;14.00;41.40
14475;DHT22;7323;50.848;4.334;2022-09-16T16:46:17;13.50;49.20
14475;DHT22;7323;50.848;4.334;2022-09-16T16:49:08;13.40;58.80
14475;DHT22;7323;50.848;4.334;2022-09-16T16:55:02;13.00;74.10
14475;DHT22;7323;50.848;4.334;2022-09-16T16:57:55;12.80;82.80
14475;DHT22;7323;50.848;4.334;2022-09-16T17:00:25;12.70;83.00
14475;DHT22;7323;50.848;4.334;2022-09-16T17:02:55;12.60;88.60
14475;DHT22;7323;50.848;4.334;2022-09-16T17:05:27;12.70;90.30
14475;DHT22;7323;50.848;4.334;2022-09-16T17:08:06;12.40;91.30
14475;DHT22;7323;50.848;4.334;2022-09-16T17:11:07;12.30;91.60
14475;DHT22;7323;50.848;4.334;2022-09-16T17:17:01;12.30;92.30
14475;DHT22;7323;50.848;4.334;2022-09-16T17:19:31;12.20;93.00
14475;DHT22;7323;50.848;4.334;2022-09-16T17:22:00;12.40;93.30
14475;DHT22;7323;50.848;4.334;2022-09-16T17:25:01;12.40;93.10
14475;DHT22;7323;50.848;4.334;2022-09-16T17:30:55;12.10;88.40
14475;DHT22;7323;50.848;4.334;2022-09-16T17:33:43;12.50;86.00
14475;DHT22;7323;50.848;4.334;2022-09-16T17:36:20;12.40;83.70
14475;DHT22;7323;50.848;4.334;2022-09-16T17:45:58;12.50;74.40
14475;DHT22;7323;50.848;4.334;2022-09-16T17:48:50;12.50;72.20
14475;DHT22;7323;50.848;4.334;2022-09-16T17:51:49;12.60;73.10
14475;DHT22;7323;50.848;4.334;2022-09-16T17:55:02;12.60;72.00
14475;DHT22;7323;50.848;4.334;2022-09-16T17:57:51;12.50;76.30
14475;DHT22;7323;50.848;4.334;2022-09-16T18:10:09;12.70;76.50
14475;DHT22;7323;50.848;4.334;2022-09-16T18:12:36;12.60;72.30
14475;DHT22;7323;50.848;4.334;2022-09-16T18:15:05;12.70;72.50
14475;DHT22;7323;50.848;4.334;2022-09-16T18:17:33;12.60;78.10
14475;DHT22;7323;50.848;4.334;2022-09-16T18:23:06;13.00;75.20
14475;DHT22;7323;50.848;4.334;2022-09-16T18:25:39;13.10;72.50
14475;DHT22;7323;50.848;4.334;2022-09-16T18:28:10;13.10;69.30
14475;DHT22;7323;50.848;4.334;2022-09-16T18:33:58;13.00;68.90
14475;DHT22;7323;50.848;4.334;2022-09-16T18:39:48;13.20;69.00
14475;DHT22;7323;50.848;4.334;2022-09-16T18:42:18;13.10;69.20
14475;DHT22;7323;50.848;4.334;2022-09-16T18:45:03;13.10;73.20
14475;DHT22;7323;50.848;4.334;2022-09-16T18:47:40;13.00;78.10
14475;DHT22;7323;50.848;4.334;2022-09-16T18:50:23;12.90;80.50
14475;DHT22;7323;50.848;4.334;2022-09-16T18:53:10;12.90;81.00
14475;DHT22;7323;50.848;4.334;2022-09-16T18:55:38;12.80;79.80
14475;DHT22;7323;50.848;4.334;2022-09-16T18:58:24;12.90;82.20
14475;DHT22;7323;50.848;4.334;2022-09-16T19:00:58;12.80;77.80
14475;DHT22;7323;50.848;4.334;2022-09-16T19:04:07;12.80;78.80
14475;DHT22;7323;50.848;4.334;2022-09-16T19:06:41;12.70;83.20
14475;DHT22;7323;50.848;4.334;2022-09-16T19:09:15;12.70;89.10
14475;DHT22;7323;50.848;4.334;2022-09-16T19:15:06;12.90;91.50
14475;DHT22;7323;50.848;4.334;2022-09-16T19:17:51;12.70;86.00
14475;DHT22;7323;50.848;4.334;2022-09-16T19:20:22;12.50;85.70
14475;DHT22;7323;50.848;4.334;2022-09-16T19:22:57;12.60;82.30
14475;DHT22;7323;50.848;4.334;2022-09-16T19:25:24;12.70;80.60
14475;DHT22;7323;50.848;4.334;2022-09-16T19:27:51;12.70;72.10
14475;DHT22;7323;50.848;4.334;2022-09-16T19:30:18;12.60;73.80
14475;DHT22;7323;50.848;4.334;2022-09-16T19:32:49;12.40;77.20
14475;DHT22;7323;50.848;4.334;2022-09-16T19:35:15;12.40;82.30
14475;DHT22;7323;50.848;4.334;2022-09-16T19:37:43;12.40;85.90
14475;DHT22;7323;50.848;4.334;2022-09-16T19:40:18;12.40;86.50
14475;DHT22;7323;50.848;4.334;2022-09-16T19:42:45;12.40;85.70
14475;DHT22;7323;50.848;4.334;2022-09-16T19:45:14;12.30;90.10
14475;DHT22;7323;50.848;4.334;2022-09-16T19:47:43;12.30;90.00
14475;DHT22;7323;50.848;4.334;2022-09-16T19:50:10;12.20;90.50
14475;DHT22;7323;50.848;4.334;2022-09-16T19:52:37;12.10;91.40
14475;DHT22;7323;50.848;4.334;2022-09-16T19:55:21;12.10;92.30
14475;DHT22;7323;50.848;4.334;2022-09-16T19:58:09;12.00;93.20
14475;DHT22;7323;50.848;4.334;2022-09-16T20:00:44;11.90;94.20
14475;DHT22;7323;50.848;4.334;2022-09-16T20:03:43;11.90;94.80
14475;DHT22;7323;50.848;4.334;2022-09-16T20:06:16;11.90;94.60
14475;DHT22;7323;50.848;4.334;2022-09-16T20:08:43;11.90;94.00
14475;DHT22;7323;50.848;4.334;2022-09-16T20:11:15;11.80;92.60
14475;DHT22;7323;50.848;4.334;2022-09-16T20:14:12;11.80;93.40
14475;DHT22;7323;50.848;4.334;2022-09-16T20:16:42;11.70;93.60
14475;DHT22;7323;50.848;4.334;2022-09-16T20:19:10;11.80;93.50
14475;DHT22;7323;50.848;4.334;2022-09-16T20:21:42;11.70;93.10
14475;DHT22;7323;50.848;4.334;2022-09-16T20:24:16;11.70;94.30
14475;DHT22;7323;50.848;4.334;2022-09-16T20:26:44;11.80;94.40
14475;DHT22;7323;50.848;4.334;2022-09-16T20:32:48;11.80;94.40
14475;DHT22;7323;50.848;4.334;2022-09-16T20:35:22;11.70;95.20
14475;DHT22;7323;50.848;4.334;2022-09-16T20:37:48;11.70;95.70
14475;DHT22;7323;50.848;4.334;2022-09-16T20:40:16;11.70;96.30
14475;DHT22;7323;50.848;4.334;2022-09-16T20:42:42;11.90;97.00
14475;DHT22;7323;50.848;4.334;2022-09-16T20:45:10;11.60;97.50
14475;DHT22;7323;50.848;4.334;2022-09-16T20:47:36;11.60;98.30
14475;DHT22;7323;50.848;4.334;2022-09-16T20:50:02;11.60;99.00
14475;DHT22;7323;50.848;4.334;2022-09-16T20:52:29;11.50;99.90
14475;DHT22;7323;50.848;4.334;2022-09-16T20:54:57;11.50;99.90
14475;DHT22;7323;50.848;4.334;2022-09-16T20:57:32;11.60;99.90
14475;DHT22;7323;50.848;4.334;2022-09-16T21:00:05;11.50;99.90
14475;DHT22;7323;50.848;4.334;2022-09-16T21:02:51;11.50;99.90
14475;DHT22;7323;50.848;4.334;2022-09-16T21:05:17;11.40;99.90
14475;DHT22;7323;50.848;4.334;2022-09-16T21:07:51;11.50;99.90
14475;DHT22;7323;50.848;4.334;2022-09-16T21:10:38;11.50;99.90
14475;DHT22;7323;50.848;4.334;2022-09-16T21:13:05;11.60;99.90
14475;DHT22;7323;50.848;4.334;2022-09-16T21:15:53;11.60;99.90
14475;DHT22;7323;50.848;4.334;2022-09-16T21:18:23;11.70;99.90
14475;DHT22;7323;50.848;4.334;2022-09-16T21:21:13;11.70;99.90
14475;DHT22;7323;50.848;4.334;2022-09-16T21:23:57;11.50;99.90
14475;DHT22;7323;50.848;4.334;2022-09-16T21:26:37;11.50;99.90
14475;DHT22;7323;50.848;4.334;2022-09-16T21:29:05;11.60;99.90
14475;DHT22;7323;50.848;4.334;2022-09-16T21:31:37;11.60;99.90
14475;DHT22;7323;50.848;4.334;2022-09-16T21:34:18;11.70;99.40
14475;DHT22;7323;50.848;4.334;2022-09-16T21:36:57;11.80;99.10
14475;DHT22;7323;50.848;4.334;2022-09-16T21:39:41;11.80;97.90
14475;DHT22;7323;50.848;4.334;2022-09-16T21:42:12;11.80;97.90
14475;DHT22;7323;50.848;4.334;2022-09-16T21:44:38;11.70;98.40
14475;DHT22;7323;50.848;4.334;2022-09-16T21:47:03;11.80;98.00
14475;DHT22;7323;50.848;4.334;2022-09-16T21:49:32;11.80;97.10
14475;DHT22;7323;50.848;4.334;2022-09-16T21:52:01;11.90;97.00
14475;DHT22;7323;50.848;4.334;2022-09-16T21:54:27;11.90;95.90
14475;DHT22;7323;50.848;4.334;2022-09-16T21:56:55;11.90;96.00
14475;DHT22;7323;50.848;4.334;2022-09-16T21:59:20;11.80;96.20
14475;DHT22;7323;50.848;4.334;2022-09-16T22:01:47;11.70;96.90
14475;DHT22;7323;50.848;4.334;2022-09-16T22:04:16;11.50;98.60
14475;DHT22;7323;50.848;4.334;2022-09-16T22:06:46;11.60;98.30
14475;DHT22;7323;50.848;4.334;2022-09-16T22:12:21;11.60;98.60
14475;DHT22;7323;50.848;4.334;2022-09-16T22:14:48;11.70;97.30
14475;DHT22;7323;50.848;4.334;2022-09-16T22:17:14;11.60;96.20
14475;DHT22;7323;50.848;4.334;2022-09-16T22:19:39;11.80;96.10
14475;DHT22;7323;50.848;4.334;2022-09-16T22:22:08;11.70;96.00
14475;DHT22;7323;50.848;4.334;2022-09-16T22:24:34;11.70;96.40
14475;DHT22;7323;50.848;4.334;2022-09-16T22:26:59;11.60;97.20
14475;DHT22;7323;50.848;4.334;2022-09-16T22:29:25;11.60;98.00
14475;DHT22;7323;50.848;4.334;2022-09-16T22:31:54;11.50;98.50
14475;DHT22;7323;50.848;4.334;2022-09-16T22:34:19;11.50;98.40
14475;DHT22;7323;50.848;4.334;2022-09-16T22:36:48;11.60;97.90
14475;DHT22;7323;50.848;4.334;2022-09-16T22:39:16;11.50;98.30
14475;DHT22;7323;50.848;4.334;2022-09-16T22:41:45;11.50;99.10
14475;DHT22;7323;50.848;4.334;2022-09-16T22:44:13;11.40;99.80
14475;DHT22;7323;50.848;4.334;2022-09-16T22:46:44;11.50;99.90
14475;DHT22;7323;50.848;4.334;2022-09-16T22:49:11;11.50;99.80
14475;DHT22;7323;50.848;4.334;2022-09-16T22:51:41;11.40;99.90
14475;DHT22;7323;50.848;4.334;2022-09-16T22:54:09;11.50;99.90
14475;DHT22;7323;50.848;4.334;2022-09-16T22:56:35;11.50;99.90
14475;DHT22;7323;50.848;4.334;2022-09-16T22:59:04;11.50;99.90
14475;DHT22;7323;50.848;4.334;2022-09-16T23:01:38;11.50;99.90
14475;DHT22;7323;50.848;4.334;2022-09-16T23:04:08;11.60;99.90
14475;DHT22;7323;50.848;4.334;2022-09-16T23:06:37;11.50;99.90
14475;DHT22;7323;50.848;4.334;2022-09-16T23:12:06;11.50;99.90
14475;DHT22;7323;50.848;4.334;2022-09-16T23:14:49;11.60;99.90
14475;DHT22;7323;50.848;4.334;2022-09-16T23:17:18;11.50;99.90
14475;DHT22;7323;50.848;4.334;2022-09-16T23:19:45;11.50;99.90
14475;DHT22;7323;50.848;4.334;2022-09-16T23:22:13;11.50;99.90
14475;DHT22;7323;50.848;4.334;2022-09-16T23:24:44;11.50;99.90
14475;DHT22;7323;50.848;4.334;2022-09-16T23:27:09;11.50;99.90
14475;DHT22;7323;50.848;4.334;2022-09-16T23:29:38;11.50;99.90
14475;DHT22;7323;50.848;4.334;2022-09-16T23:32:38;11.50;99.90
14475;DHT22;7323;50.848;4.334;2022-09-16T23:38:27;11.60;99.90
14475;DHT22;7323;50.848;4.334;2022-09-16T23:40:53;11.70;99.90
14475;DHT22;7323;50.848;4.334;2022-09-16T23:43:23;11.70;99.90
14475;DHT22;7323;50.848;4.334;2022-09-16T23:45:49;11.70;99.90
14475;DHT22;7323;50.848;4.334;2022-09-16T23:48:21;11.80;99.90
14475;DHT22;7323;50.848;4.334;2022-09-16T23:51:02;11.70;99.90
14475;DHT22;7323;50.848;4.334;2022-09-16T23:53:33;11.80;99.90
14475;DHT22;7323;50.848;4.334;2022-09-16T23:56:06;11.90;99.90
14475;DHT22;7323;50.848;4.334;2022-09-16T23:58:41;11.90;99.90
